TimeMST,TemperatureF,Dew PointF,Humidity,Sea Level PressureIn,VisibilityMPH,Wind Direction,Wind SpeedMPH,Gust SpeedMPH,PrecipitationIn,Events,Conditions,WindDirDegrees,DateUTC
3:59 AM,64.4,60.8,88,29.79,8.0,WNW,2.3,-,N/A,,Clear,290,2012-10-19 10:59:00
4:42 AM,66.2,60.8,83,29.80,8.0,NNW,2.3,-,N/A,,Clear,340,2012-10-19 11:42:00
4:50 AM,66,62,83,29.82,3,WNW,4.5,,,,,290,2012-10-19 11:50:00
5:43 AM,64.4,60.8,88,29.80,10.0,Calm,Calm,-,N/A,,Partly Cloudy,0,2012-10-19 12:43:00
6:41 AM,64.4,60.8,88,29.80,10.0,NNE,3.5,-,N/A,,Partly Cloudy,30,2012-10-19 13:41:00
7:44 AM,73.4,60.8,65,29.82,10.0,NNW,4.6,-,N/A,,Partly Cloudy,340,2012-10-19 14:44:00
7:50 AM,72,64,71,29.82,12,NNW,4.5,,,,,340,2012-10-19 14:50:00
8:43 AM,78.8,60.8,54,29.83,10.0,Calm,Calm,-,N/A,,Partly Cloudy,0,2012-10-19 15:43:00
9:43 AM,84.2,60.8,45,29.82,10.0,WNW,4.6,-,N/A,,Partly Cloudy,300,2012-10-19 16:43:00
10:45 AM,86.0,60.8,43,29.81,10.0,West,8.1,-,N/A,,Partly Cloudy,270,2012-10-19 17:45:00
10:50 AM,89,66,37,29.83,12,WSW,13.4,,,,,250,2012-10-19 17:50:00
11:45 AM,87.8,62.6,43,29.79,10.0,WNW,12.7,-,N/A,,Partly Cloudy,300,2012-10-19 18:45:00
12:42 PM,89.6,60.8,38,29.76,10.0,WNW,8.1,-,N/A,,Partly Cloudy,300,2012-10-19 19:42:00
1:44 PM,93.2,59.0,32,29.74,10.0,West,5.8,-,N/A,,Partly Cloudy,260,2012-10-19 20:44:00
2:41 PM,93.2,59.0,32,29.72,10.0,WNW,11.5,-,N/A,,Partly Cloudy,290,2012-10-19 21:41:00
3:43 PM,93.2,59.0,32,29.72,10.0,West,12.7,-,N/A,,Partly Cloudy,280,2012-10-19 22:43:00
4:44 PM,89.6,62.6,40,28.48,10.0,West,9.2,-,N/A,,Partly Cloudy,280,2012-10-19 23:44:00
5:48 PM,84.2,68.0,58,29.74,10.0,West,8.1,-,N/A,,Partly Cloudy,270,2012-10-20 00:48:00
6:44 PM,80.6,69.8,70,29.75,10.0,West,5.8,-,N/A,,Partly Cloudy,270,2012-10-20 01:44:00
7:49 PM,78.8,69.8,74,29.76,10.0,WNW,2.3,-,N/A,,Scattered Clouds,300,2012-10-20 02:49:00